createdAt,value
2017-04-22T00:09:00.204Z,0
2017-04-22T00:19:00.036Z,0
2017-04-22T00:29:00.040Z,0
2017-04-22T00:39:00.149Z,0
2017-04-22T00:49:00.055Z,0
2017-04-22T00:59:00.034Z,0
2017-04-22T01:09:00.036Z,0
2017-04-22T01:19:00.044Z,0
2017-04-22T01:29:00.022Z,0
2017-04-22T01:39:00.014Z,0
2017-04-22T01:49:00.042Z,0
2017-04-22T01:59:00.119Z,0
2017-04-22T02:09:00.068Z,0
2017-04-22T02:19:00.190Z,0
2017-04-22T02:29:00.017Z,0
2017-04-22T02:39:00.206Z,0
2017-04-22T02:49:00.475Z,0
2017-04-22T02:59:00.030Z,0
2017-04-22T03:09:00.097Z,0
2017-04-22T03:19:00.591Z,0
2017-04-22T03:29:00.005Z,0
2017-04-22T03:39:09.911Z,4
2017-04-22T03:49:00.054Z,4
2017-04-22T03:58:59.990Z,12
2017-04-22T04:09:00.006Z,72
2017-04-22T04:19:00.576Z,176
2017-04-22T04:29:00.091Z,408
2017-04-22T04:39:00.001Z,920
2017-04-22T04:49:00.109Z,2128
2017-04-22T04:58:59.994Z,2296
2017-04-22T05:09:00.130Z,2464
2017-04-22T05:19:00.595Z,5612
2017-04-22T05:29:00.016Z,5328
2017-04-22T05:39:00.152Z,6140
2017-04-22T05:49:00.088Z,6048
2017-04-22T05:58:59.983Z,4584
2017-04-22T06:09:00.093Z,5036
2017-04-22T06:19:00.016Z,4848
2017-04-22T06:28:59.978Z,7916
2017-04-22T06:38:59.979Z,7380
2017-04-22T06:49:00.057Z,8348
2017-04-22T06:59:00.013Z,9272
2017-04-22T07:09:00.132Z,11672
2017-04-22T07:18:59.989Z,15704
2017-04-22T07:29:00.090Z,19616
2017-04-22T07:39:00.026Z,6032
2017-04-22T07:49:00.095Z,13056
2017-04-22T07:59:00.077Z,68672
2017-04-22T08:09:00.044Z,63712
2017-04-22T08:19:00.088Z,72736
2017-04-22T08:29:00.021Z,29184
2017-04-22T08:39:00.086Z,15396
2017-04-22T08:48:59.973Z,7792
2017-04-22T08:58:59.989Z,15548
2017-04-22T09:08:59.992Z,15656
2017-04-22T09:19:00.101Z,9576
2017-04-22T09:29:00.024Z,13888
2017-04-22T09:39:00.087Z,11300
2017-04-22T09:49:00.029Z,20992
2017-04-22T09:59:00.017Z,18816
2017-04-22T10:09:00.063Z,18224
2017-04-22T10:18:59.983Z,13032
2017-04-22T10:29:00.015Z,16520
2017-04-22T10:39:00.039Z,17936
2017-04-22T10:49:00.002Z,19168
2017-04-22T10:58:59.991Z,16912
2017-04-22T11:08:59.986Z,8264
2017-04-22T11:19:00.090Z,3632
2017-04-22T11:29:00.002Z,6504
2017-04-22T11:39:00.154Z,6352
2017-04-22T11:49:00.104Z,9268
2017-04-22T11:59:00.030Z,4728
2017-04-22T12:09:00.081Z,15112
2017-04-22T12:19:00.049Z,16812
2017-04-22T12:29:00.190Z,10900
2017-04-22T12:39:00.549Z,15300
2017-04-22T12:49:00.106Z,14952
2017-04-22T12:59:00.136Z,12904
2017-04-22T13:09:00.049Z,13616
2017-04-22T13:19:00.121Z,11428
2017-04-22T13:29:00.031Z,13520
2017-04-22T13:39:00.075Z,6228
2017-04-22T13:49:00.017Z,10808
2017-04-22T13:59:00.111Z,13912
2017-04-22T14:09:00.143Z,11936
2017-04-22T14:19:00.042Z,12716
2017-04-22T14:29:00.283Z,10864
2017-04-22T14:39:00.008Z,11152
2017-04-22T14:49:00.076Z,7920
2017-04-22T14:59:00.156Z,8112
2017-04-22T15:09:00.484Z,4604
2017-04-22T15:19:01.404Z,4616
2017-04-22T15:29:00.238Z,10956
2017-04-22T15:39:01.761Z,7728
2017-04-22T15:49:00.356Z,6820
2017-04-22T15:59:00.606Z,7088
2017-04-22T16:09:00.780Z,6644
2017-04-22T16:19:00.689Z,7592
2017-04-22T16:29:01.109Z,7252
2017-04-22T16:39:00.913Z,5464
2017-04-22T16:49:01.006Z,4616
2017-04-22T16:59:00.542Z,3828
2017-04-22T17:09:00.678Z,2808
2017-04-22T17:29:03.687Z,2292
2017-04-22T17:39:00.849Z,1840
2017-04-22T17:49:00.775Z,1192
2017-04-22T17:59:02.017Z,652
2017-04-22T18:09:01.388Z,584
2017-04-22T18:19:00.792Z,552
2017-04-22T18:29:00.929Z,312
2017-04-22T18:39:03.615Z,132
2017-04-22T18:49:02.313Z,40
2017-04-22T18:59:03.135Z,16
2017-04-22T19:09:04.685Z,4
2017-04-22T19:19:01.542Z,4
2017-04-22T19:29:00.512Z,0
2017-04-22T19:39:01.829Z,0
2017-04-22T19:49:01.056Z,0
2017-04-22T19:59:02.733Z,0
2017-04-22T20:11:02.105Z,0
2017-04-22T20:19:00.918Z,0
2017-04-22T20:29:02.013Z,0
2017-04-22T20:39:03.697Z,0
2017-04-22T20:49:05.598Z,0
2017-04-22T20:59:02.733Z,0
2017-04-22T21:09:00.072Z,0
2017-04-22T21:18:59.968Z,0
2017-04-22T21:29:00.300Z,0
2017-04-22T21:39:00.054Z,0
2017-04-22T21:48:59.964Z,0
2017-04-22T21:59:00.003Z,0
2017-04-22T22:09:00.018Z,0
2017-04-22T22:18:59.984Z,0
2017-04-22T22:28:59.941Z,0
2017-04-22T22:38:59.971Z,0
2017-04-22T22:48:59.934Z,0
2017-04-22T22:59:00.015Z,0
2017-04-22T23:08:59.986Z,0
2017-04-22T23:18:59.966Z,0
2017-04-22T23:28:59.932Z,0
2017-04-22T23:38:59.971Z,0
2017-04-22T23:49:00.055Z,0
2017-04-22T23:59:00.008Z,0
